sensor_id;sensor_type;location;lat;lon;timestamp;P1;durP1;ratioP1;P2;durP2;ratioP2
13279;SDS011;6708;49.814;8.652;2023-01-29T00:02:01;4.57;;;4.27;;
13279;SDS011;6708;49.814;8.652;2023-01-29T00:04:30;4.83;;;4.43;;
13279;SDS011;6708;49.814;8.652;2023-01-29T00:07:01;5.37;;;4.87;;
13279;SDS011;6708;49.814;8.652;2023-01-29T00:09:30;4.77;;;4.37;;
13279;SDS011;6708;49.814;8.652;2023-01-29T00:11:58;4.87;;;4.47;;
13279;SDS011;6708;49.814;8.652;2023-01-29T00:14:26;4.17;;;3.87;;
13279;SDS011;6708;49.814;8.652;2023-01-29T00:16:55;4.40;;;4.10;;
13279;SDS011;6708;49.814;8.652;2023-01-29T00:19:23;4.53;;;3.77;;
13279;SDS011;6708;49.814;8.652;2023-01-29T00:21:51;4.77;;;4.10;;
13279;SDS011;6708;49.814;8.652;2023-01-29T00:24:23;5.13;;;4.60;;
13279;SDS011;6708;49.814;8.652;2023-01-29T00:26:51;4.77;;;4.20;;
13279;SDS011;6708;49.814;8.652;2023-01-29T00:29:19;5.10;;;4.70;;
13279;SDS011;6708;49.814;8.652;2023-01-29T00:31:48;5.30;;;4.73;;
13279;SDS011;6708;49.814;8.652;2023-01-29T00:34:16;7.23;;;4.83;;
13279;SDS011;6708;49.814;8.652;2023-01-29T00:36:45;5.13;;;4.63;;
13279;SDS011;6708;49.814;8.652;2023-01-29T00:39:13;4.97;;;4.53;;
13279;SDS011;6708;49.814;8.652;2023-01-29T00:41:51;5.47;;;4.97;;
13279;SDS011;6708;49.814;8.652;2023-01-29T00:44:34;5.70;;;5.10;;
13279;SDS011;6708;49.814;8.652;2023-01-29T00:47:23;5.40;;;4.90;;
13279;SDS011;6708;49.814;8.652;2023-01-29T00:49:57;5.90;;;5.30;;
13279;SDS011;6708;49.814;8.652;2023-01-29T00:52:26;6.37;;;5.20;;
13279;SDS011;6708;49.814;8.652;2023-01-29T00:54:57;5.33;;;4.90;;
13279;SDS011;6708;49.814;8.652;2023-01-29T00:57:30;5.30;;;4.90;;
13279;SDS011;6708;49.814;8.652;2023-01-29T00:59:59;7.73;;;5.37;;
13279;SDS011;6708;49.814;8.652;2023-01-29T01:02:29;5.30;;;4.90;;
13279;SDS011;6708;49.814;8.652;2023-01-29T01:05:10;5.40;;;5.00;;
13279;SDS011;6708;49.814;8.652;2023-01-29T01:07:42;5.13;;;4.63;;
13279;SDS011;6708;49.814;8.652;2023-01-29T01:10:12;5.90;;;5.30;;
13279;SDS011;6708;49.814;8.652;2023-01-29T01:12:48;5.57;;;5.00;;
13279;SDS011;6708;49.814;8.652;2023-01-29T01:15:19;4.83;;;4.53;;
13279;SDS011;6708;49.814;8.652;2023-01-29T01:17:50;5.53;;;5.03;;
13279;SDS011;6708;49.814;8.652;2023-01-29T01:20:20;5.10;;;4.70;;
13279;SDS011;6708;49.814;8.652;2023-01-29T01:22:49;5.23;;;4.80;;
13279;SDS011;6708;49.814;8.652;2023-01-29T01:25:18;5.07;;;4.77;;
13279;SDS011;6708;49.814;8.652;2023-01-29T01:27:49;6.07;;;5.13;;
13279;SDS011;6708;49.814;8.652;2023-01-29T01:30:19;5.10;;;4.70;;
13279;SDS011;6708;49.814;8.652;2023-01-29T01:32:47;5.20;;;4.73;;
13279;SDS011;6708;49.814;8.652;2023-01-29T01:35:16;7.77;;;5.30;;
13279;SDS011;6708;49.814;8.652;2023-01-29T01:37:45;5.70;;;5.23;;
13279;SDS011;6708;49.814;8.652;2023-01-29T01:40:14;4.87;;;4.47;;
13279;SDS011;6708;49.814;8.652;2023-01-29T01:42:48;5.30;;;4.90;;
13279;SDS011;6708;49.814;8.652;2023-01-29T01:45:18;4.97;;;4.47;;
13279;SDS011;6708;49.814;8.652;2023-01-29T01:47:51;5.93;;;5.00;;
13279;SDS011;6708;49.814;8.652;2023-01-29T01:50:25;6.07;;;5.20;;
13279;SDS011;6708;49.814;8.652;2023-01-29T01:52:57;5.63;;;4.80;;
13279;SDS011;6708;49.814;8.652;2023-01-29T01:55:28;5.17;;;4.53;;
13279;SDS011;6708;49.814;8.652;2023-01-29T01:58:02;5.20;;;4.63;;
13279;SDS011;6708;49.814;8.652;2023-01-29T02:00:32;5.53;;;4.47;;
13279;SDS011;6708;49.814;8.652;2023-01-29T02:03:00;4.93;;;4.40;;
13279;SDS011;6708;49.814;8.652;2023-01-29T02:05:42;5.40;;;4.43;;
13279;SDS011;6708;49.814;8.652;2023-01-29T02:08:23;4.90;;;4.50;;
13279;SDS011;6708;49.814;8.652;2023-01-29T02:11:09;6.43;;;5.83;;
13279;SDS011;6708;49.814;8.652;2023-01-29T02:13:39;15.67;;;9.57;;
13279;SDS011;6708;49.814;8.652;2023-01-29T02:16:09;6.40;;;5.80;;
13279;SDS011;6708;49.814;8.652;2023-01-29T02:18:37;4.87;;;4.47;;
13279;SDS011;6708;49.814;8.652;2023-01-29T02:21:10;4.87;;;4.47;;
13279;SDS011;6708;49.814;8.652;2023-01-29T02:23:59;7.23;;;5.73;;
13279;SDS011;6708;49.814;8.652;2023-01-29T02:26:38;8.37;;;6.70;;
13279;SDS011;6708;49.814;8.652;2023-01-29T02:29:16;7.53;;;6.13;;
13279;SDS011;6708;49.814;8.652;2023-01-29T02:31:57;8.07;;;5.07;;
13279;SDS011;6708;49.814;8.652;2023-01-29T02:34:35;8.93;;;7.57;;
13279;SDS011;6708;49.814;8.652;2023-01-29T02:37:19;4.57;;;4.17;;
13279;SDS011;6708;49.814;8.652;2023-01-29T02:39:54;4.63;;;4.13;;
13279;SDS011;6708;49.814;8.652;2023-01-29T02:42:30;5.07;;;4.67;;
13279;SDS011;6708;49.814;8.652;2023-01-29T02:45:05;4.60;;;4.30;;
13279;SDS011;6708;49.814;8.652;2023-01-29T02:47:40;4.43;;;4.10;;
13279;SDS011;6708;49.814;8.652;2023-01-29T02:50:13;5.57;;;5.07;;
13279;SDS011;6708;49.814;8.652;2023-01-29T02:52:45;4.70;;;4.27;;
13279;SDS011;6708;49.814;8.652;2023-01-29T02:55:22;6.80;;;4.60;;
13279;SDS011;6708;49.814;8.652;2023-01-29T02:57:54;4.63;;;4.23;;
13279;SDS011;6708;49.814;8.652;2023-01-29T03:00:28;4.87;;;4.47;;
13279;SDS011;6708;49.814;8.652;2023-01-29T03:02:59;4.43;;;4.03;;
13279;SDS011;6708;49.814;8.652;2023-01-29T03:05:31;4.40;;;4.03;;
13279;SDS011;6708;49.814;8.652;2023-01-29T03:08:03;6.13;;;4.77;;
13279;SDS011;6708;49.814;8.652;2023-01-29T03:10:36;4.80;;;4.40;;
13279;SDS011;6708;49.814;8.652;2023-01-29T03:13:09;5.73;;;4.03;;
13279;SDS011;6708;49.814;8.652;2023-01-29T03:15:46;4.53;;;4.23;;
13279;SDS011;6708;49.814;8.652;2023-01-29T03:18:31;3.83;;;3.53;;
13279;SDS011;6708;49.814;8.652;2023-01-29T03:21:06;5.07;;;4.67;;
13279;SDS011;6708;49.814;8.652;2023-01-29T03:23:58;4.70;;;4.30;;
13279;SDS011;6708;49.814;8.652;2023-01-29T03:26:40;4.00;;;3.70;;
13279;SDS011;6708;49.814;8.652;2023-01-29T03:29:22;4.37;;;4.07;;
13279;SDS011;6708;49.814;8.652;2023-01-29T03:32:07;4.70;;;4.20;;
13279;SDS011;6708;49.814;8.652;2023-01-29T03:34:40;6.97;;;4.40;;
13279;SDS011;6708;49.814;8.652;2023-01-29T03:37:10;4.73;;;4.23;;
13279;SDS011;6708;49.814;8.652;2023-01-29T03:39:43;5.50;;;4.97;;
13279;SDS011;6708;49.814;8.652;2023-01-29T03:42:13;4.97;;;4.47;;
13279;SDS011;6708;49.814;8.652;2023-01-29T03:44:48;5.47;;;4.63;;
13279;SDS011;6708;49.814;8.652;2023-01-29T03:47:31;4.93;;;4.53;;
13279;SDS011;6708;49.814;8.652;2023-01-29T03:50:06;5.10;;;4.70;;
13279;SDS011;6708;49.814;8.652;2023-01-29T03:52:39;4.63;;;4.30;;
13279;SDS011;6708;49.814;8.652;2023-01-29T03:55:11;5.17;;;4.67;;
13279;SDS011;6708;49.814;8.652;2023-01-29T03:57:43;4.67;;;4.30;;
13279;SDS011;6708;49.814;8.652;2023-01-29T04:00:18;4.73;;;4.33;;
13279;SDS011;6708;49.814;8.652;2023-01-29T04:03:00;4.97;;;4.53;;
13279;SDS011;6708;49.814;8.652;2023-01-29T04:05:35;5.43;;;4.93;;
13279;SDS011;6708;49.814;8.652;2023-01-29T04:08:15;4.93;;;4.53;;
13279;SDS011;6708;49.814;8.652;2023-01-29T04:10:48;4.97;;;4.57;;
13279;SDS011;6708;49.814;8.652;2023-01-29T04:13:17;4.73;;;4.33;;
13279;SDS011;6708;49.814;8.652;2023-01-29T04:15:49;7.63;;;4.63;;
13279;SDS011;6708;49.814;8.652;2023-01-29T04:18:36;4.90;;;4.50;;
13279;SDS011;6708;49.814;8.652;2023-01-29T04:21:07;4.70;;;4.40;;
13279;SDS011;6708;49.814;8.652;2023-01-29T04:23:35;4.20;;;3.90;;
13279;SDS011;6708;49.814;8.652;2023-01-29T04:28:54;4.87;;;4.47;;
13279;SDS011;6708;49.814;8.652;2023-01-29T04:31:29;6.57;;;4.80;;
13279;SDS011;6708;49.814;8.652;2023-01-29T04:34:06;5.57;;;5.07;;
13279;SDS011;6708;49.814;8.652;2023-01-29T04:36:40;4.80;;;4.43;;
13279;SDS011;6708;49.814;8.652;2023-01-29T04:39:16;4.17;;;3.83;;
13279;SDS011;6708;49.814;8.652;2023-01-29T04:41:48;4.50;;;4.20;;
13279;SDS011;6708;49.814;8.652;2023-01-29T04:44:20;4.53;;;4.10;;
13279;SDS011;6708;49.814;8.652;2023-01-29T04:46:51;5.37;;;4.87;;
13279;SDS011;6708;49.814;8.652;2023-01-29T04:49:30;4.97;;;4.47;;
13279;SDS011;6708;49.814;8.652;2023-01-29T04:52:02;5.57;;;5.07;;
13279;SDS011;6708;49.814;8.652;2023-01-29T04:54:39;5.10;;;4.70;;
13279;SDS011;6708;49.814;8.652;2023-01-29T04:57:18;4.47;;;4.17;;
13279;SDS011;6708;49.814;8.652;2023-01-29T04:59:52;4.53;;;4.23;;
13279;SDS011;6708;49.814;8.652;2023-01-29T05:02:25;4.30;;;3.97;;
13279;SDS011;6708;49.814;8.652;2023-01-29T05:04:56;4.17;;;3.77;;
13279;SDS011;6708;49.814;8.652;2023-01-29T05:07:25;3.97;;;3.57;;
13279;SDS011;6708;49.814;8.652;2023-01-29T05:09:55;4.13;;;3.90;;
13279;SDS011;6708;49.814;8.652;2023-01-29T05:12:24;4.50;;;4.13;;
13279;SDS011;6708;49.814;8.652;2023-01-29T05:14:53;4.53;;;4.23;;
13279;SDS011;6708;49.814;8.652;2023-01-29T05:17:23;3.90;;;3.67;;
13279;SDS011;6708;49.814;8.652;2023-01-29T05:19:52;4.30;;;3.93;;
13279;SDS011;6708;49.814;8.652;2023-01-29T05:22:23;4.47;;;4.07;;
13279;SDS011;6708;49.814;8.652;2023-01-29T05:24:51;4.37;;;3.97;;
13279;SDS011;6708;49.814;8.652;2023-01-29T05:27:20;4.20;;;3.90;;
13279;SDS011;6708;49.814;8.652;2023-01-29T05:30:03;4.97;;;4.60;;
13279;SDS011;6708;49.814;8.652;2023-01-29T05:32:32;4.90;;;4.50;;
13279;SDS011;6708;49.814;8.652;2023-01-29T05:35:01;4.67;;;4.33;;
13279;SDS011;6708;49.814;8.652;2023-01-29T05:37:32;5.10;;;4.70;;
13279;SDS011;6708;49.814;8.652;2023-01-29T05:40:00;6.37;;;4.63;;
13279;SDS011;6708;49.814;8.652;2023-01-29T05:42:28;5.60;;;5.13;;
13279;SDS011;6708;49.814;8.652;2023-01-29T05:44:57;4.57;;;4.27;;
13279;SDS011;6708;49.814;8.652;2023-01-29T05:47:25;4.90;;;4.50;;
13279;SDS011;6708;49.814;8.652;2023-01-29T05:49:54;5.33;;;4.87;;
13279;SDS011;6708;49.814;8.652;2023-01-29T05:52:22;5.57;;;5.07;;
13279;SDS011;6708;49.814;8.652;2023-01-29T05:54:53;5.77;;;5.20;;
13279;SDS011;6708;49.814;8.652;2023-01-29T05:57:21;5.63;;;5.13;;
13279;SDS011;6708;49.814;8.652;2023-01-29T05:59:49;5.03;;;4.60;;
13279;SDS011;6708;49.814;8.652;2023-01-29T06:02:18;5.60;;;5.20;;
13279;SDS011;6708;49.814;8.652;2023-01-29T06:04:46;5.53;;;5.03;;
13279;SDS011;6708;49.814;8.652;2023-01-29T06:07:14;5.30;;;4.80;;
13279;SDS011;6708;49.814;8.652;2023-01-29T06:09:43;5.40;;;4.90;;
13279;SDS011;6708;49.814;8.652;2023-01-29T06:12:14;5.10;;;4.70;;
13279;SDS011;6708;49.814;8.652;2023-01-29T06:14:42;5.27;;;4.90;;
13279;SDS011;6708;49.814;8.652;2023-01-29T06:17:10;5.13;;;4.63;;
13279;SDS011;6708;49.814;8.652;2023-01-29T06:19:39;5.30;;;4.80;;
13279;SDS011;6708;49.814;8.652;2023-01-29T06:22:07;6.07;;;4.77;;
13279;SDS011;6708;49.814;8.652;2023-01-29T06:24:35;5.17;;;4.67;;
13279;SDS011;6708;49.814;8.652;2023-01-29T06:27:04;6.27;;;5.67;;
13279;SDS011;6708;49.814;8.652;2023-01-29T06:29:35;5.30;;;4.90;;
13279;SDS011;6708;49.814;8.652;2023-01-29T06:32:03;5.27;;;4.60;;
13279;SDS011;6708;49.814;8.652;2023-01-29T06:34:32;5.57;;;5.10;;
13279;SDS011;6708;49.814;8.652;2023-01-29T06:37:00;4.77;;;4.47;;
13279;SDS011;6708;49.814;8.652;2023-01-29T06:39:29;4.53;;;4.23;;
13279;SDS011;6708;49.814;8.652;2023-01-29T06:41:57;4.90;;;4.50;;
13279;SDS011;6708;49.814;8.652;2023-01-29T06:44:25;4.27;;;3.87;;
13279;SDS011;6708;49.814;8.652;2023-01-29T06:46:56;5.00;;;4.60;;
13279;SDS011;6708;49.814;8.652;2023-01-29T06:49:24;4.60;;;4.30;;
13279;SDS011;6708;49.814;8.652;2023-01-29T06:51:53;4.57;;;4.27;;
13279;SDS011;6708;49.814;8.652;2023-01-29T06:54:21;4.40;;;4.10;;
13279;SDS011;6708;49.814;8.652;2023-01-29T06:56:50;4.43;;;4.03;;
13279;SDS011;6708;49.814;8.652;2023-01-29T06:59:18;4.33;;;4.03;;
13279;SDS011;6708;49.814;8.652;2023-01-29T07:01:46;4.70;;;4.40;;
13279;SDS011;6708;49.814;8.652;2023-01-29T07:04:17;4.43;;;4.00;;
13279;SDS011;6708;49.814;8.652;2023-01-29T07:06:46;7.90;;;4.93;;
13279;SDS011;6708;49.814;8.652;2023-01-29T07:09:14;3.93;;;3.70;;
13279;SDS011;6708;49.814;8.652;2023-01-29T07:11:43;4.47;;;4.17;;
13279;SDS011;6708;49.814;8.652;2023-01-29T07:14:12;5.60;;;4.83;;
13279;SDS011;6708;49.814;8.652;2023-01-29T07:16:40;4.80;;;4.40;;
13279;SDS011;6708;49.814;8.652;2023-01-29T07:19:08;4.67;;;4.37;;
13279;SDS011;6708;49.814;8.652;2023-01-29T07:21:39;6.63;;;4.33;;
13279;SDS011;6708;49.814;8.652;2023-01-29T07:24:10;4.57;;;3.93;;
13279;SDS011;6708;49.814;8.652;2023-01-29T07:26:40;4.80;;;4.40;;
13279;SDS011;6708;49.814;8.652;2023-01-29T07:29:08;5.20;;;4.80;;
13279;SDS011;6708;49.814;8.652;2023-01-29T07:31:37;5.40;;;4.77;;
13279;SDS011;6708;49.814;8.652;2023-01-29T07:34:05;4.33;;;4.03;;
13279;SDS011;6708;49.814;8.652;2023-01-29T07:36:33;5.13;;;4.73;;
13279;SDS011;6708;49.814;8.652;2023-01-29T07:39:04;4.23;;;3.93;;
13279;SDS011;6708;49.814;8.652;2023-01-29T07:41:33;4.73;;;4.33;;
13279;SDS011;6708;49.814;8.652;2023-01-29T07:44:13;4.70;;;4.30;;
13279;SDS011;6708;49.814;8.652;2023-01-29T07:46:41;4.47;;;4.07;;
13279;SDS011;6708;49.814;8.652;2023-01-29T07:49:09;4.07;;;3.67;;
13279;SDS011;6708;49.814;8.652;2023-01-29T07:51:38;4.87;;;4.47;;
13279;SDS011;6708;49.814;8.652;2023-01-29T07:54:09;4.43;;;4.13;;
13279;SDS011;6708;49.814;8.652;2023-01-29T07:56:37;6.50;;;4.00;;
13279;SDS011;6708;49.814;8.652;2023-01-29T07:59:05;5.23;;;4.80;;
13279;SDS011;6708;49.814;8.652;2023-01-29T08:01:34;6.67;;;5.10;;
13279;SDS011;6708;49.814;8.652;2023-01-29T08:04:02;5.23;;;4.63;;
13279;SDS011;6708;49.814;8.652;2023-01-29T08:06:30;5.47;;;4.97;;
13279;SDS011;6708;49.814;8.652;2023-01-29T08:08:59;5.10;;;4.70;;
13279;SDS011;6708;49.814;8.652;2023-01-29T08:11:30;5.77;;;5.17;;
13279;SDS011;6708;49.814;8.652;2023-01-29T08:13:58;5.37;;;4.97;;
13279;SDS011;6708;49.814;8.652;2023-01-29T08:16:27;5.20;;;4.70;;
13279;SDS011;6708;49.814;8.652;2023-01-29T08:18:55;5.67;;;5.17;;
13279;SDS011;6708;49.814;8.652;2023-01-29T08:21:23;4.80;;;4.50;;
13279;SDS011;6708;49.814;8.652;2023-01-29T08:23:52;5.60;;;5.30;;
13279;SDS011;6708;49.814;8.652;2023-01-29T08:26:20;6.53;;;5.77;;
13279;SDS011;6708;49.814;8.652;2023-01-29T08:28:52;25.07;;;6.50;;
13279;SDS011;6708;49.814;8.652;2023-01-29T08:31:21;6.10;;;5.50;;
13279;SDS011;6708;49.814;8.652;2023-01-29T08:33:49;5.93;;;5.43;;
13279;SDS011;6708;49.814;8.652;2023-01-29T08:36:18;5.40;;;5.00;;
13279;SDS011;6708;49.814;8.652;2023-01-29T08:38:46;8.87;;;7.17;;
13279;SDS011;6708;49.814;8.652;2023-01-29T08:41:14;6.07;;;5.53;;
13279;SDS011;6708;49.814;8.652;2023-01-29T08:43:43;5.67;;;5.27;;
13279;SDS011;6708;49.814;8.652;2023-01-29T08:46:14;7.00;;;6.30;;
13279;SDS011;6708;49.814;8.652;2023-01-29T08:48:42;9.67;;;7.97;;
13279;SDS011;6708;49.814;8.652;2023-01-29T08:51:10;10.03;;;8.20;;
13279;SDS011;6708;49.814;8.652;2023-01-29T08:53:39;15.03;;;12.40;;
13279;SDS011;6708;49.814;8.652;2023-01-29T08:56:08;6.60;;;6.00;;
13279;SDS011;6708;49.814;8.652;2023-01-29T08:58:36;6.13;;;5.47;;
13279;SDS011;6708;49.814;8.652;2023-01-29T09:01:05;6.07;;;5.47;;
13279;SDS011;6708;49.814;8.652;2023-01-29T09:03:37;7.33;;;6.10;;
13279;SDS011;6708;49.814;8.652;2023-01-29T09:06:08;6.00;;;5.50;;
13279;SDS011;6708;49.814;8.652;2023-01-29T09:08:37;5.50;;;5.07;;
13279;SDS011;6708;49.814;8.652;2023-01-29T09:11:06;5.17;;;4.77;;
13279;SDS011;6708;49.814;8.652;2023-01-29T09:13:34;7.07;;;6.03;;
13279;SDS011;6708;49.814;8.652;2023-01-29T09:16:03;6.17;;;5.57;;
13279;SDS011;6708;49.814;8.652;2023-01-29T09:18:32;7.37;;;6.80;;
13279;SDS011;6708;49.814;8.652;2023-01-29T09:21:04;5.90;;;5.40;;
13279;SDS011;6708;49.814;8.652;2023-01-29T09:23:32;6.63;;;6.03;;
13279;SDS011;6708;49.814;8.652;2023-01-29T09:26:01;9.03;;;6.30;;
13279;SDS011;6708;49.814;8.652;2023-01-29T09:28:29;7.03;;;6.43;;
13279;SDS011;6708;49.814;8.652;2023-01-29T09:30:59;7.43;;;6.73;;
13279;SDS011;6708;49.814;8.652;2023-01-29T09:33:28;7.87;;;7.17;;
13279;SDS011;6708;49.814;8.652;2023-01-29T09:35:57;5.87;;;5.47;;
13279;SDS011;6708;49.814;8.652;2023-01-29T09:38:28;6.23;;;5.67;;
13279;SDS011;6708;49.814;8.652;2023-01-29T09:40:58;6.33;;;5.70;;
13279;SDS011;6708;49.814;8.652;2023-01-29T09:43:33;5.80;;;5.40;;
13279;SDS011;6708;49.814;8.652;2023-01-29T09:46:13;5.60;;;5.20;;
13279;SDS011;6708;49.814;8.652;2023-01-29T09:48:44;5.63;;;5.23;;
13279;SDS011;6708;49.814;8.652;2023-01-29T09:51:14;5.87;;;5.37;;
13279;SDS011;6708;49.814;8.652;2023-01-29T09:53:55;5.87;;;5.37;;
13279;SDS011;6708;49.814;8.652;2023-01-29T09:56:28;7.00;;;5.53;;
13279;SDS011;6708;49.814;8.652;2023-01-29T09:58:57;5.40;;;5.00;;
13279;SDS011;6708;49.814;8.652;2023-01-29T10:01:28;5.87;;;5.47;;
13279;SDS011;6708;49.814;8.652;2023-01-29T10:07:00;5.67;;;5.27;;
13279;SDS011;6708;49.814;8.652;2023-01-29T10:12:57;8.47;;;6.00;;
13279;SDS011;6708;49.814;8.652;2023-01-29T10:15:33;5.80;;;5.30;;
13279;SDS011;6708;49.814;8.652;2023-01-29T10:18:17;5.83;;;5.43;;
13279;SDS011;6708;49.814;8.652;2023-01-29T10:20:57;6.83;;;6.23;;
13279;SDS011;6708;49.814;8.652;2023-01-29T10:23:31;6.00;;;5.53;;
13279;SDS011;6708;49.814;8.652;2023-01-29T10:26:03;5.80;;;5.33;;
13279;SDS011;6708;49.814;8.652;2023-01-29T10:28:32;6.80;;;6.20;;
13279;SDS011;6708;49.814;8.652;2023-01-29T10:31:05;6.10;;;5.70;;
13279;SDS011;6708;49.814;8.652;2023-01-29T10:33:37;6.17;;;5.57;;
13279;SDS011;6708;49.814;8.652;2023-01-29T10:36:07;6.87;;;6.30;;
13279;SDS011;6708;49.814;8.652;2023-01-29T10:38:41;6.50;;;5.87;;
13279;SDS011;6708;49.814;8.652;2023-01-29T10:41:20;5.83;;;5.43;;
13279;SDS011;6708;49.814;8.652;2023-01-29T10:44:00;7.30;;;5.97;;
13279;SDS011;6708;49.814;8.652;2023-01-29T10:46:41;6.53;;;5.93;;
13279;SDS011;6708;49.814;8.652;2023-01-29T10:49:19;6.43;;;5.83;;
13279;SDS011;6708;49.814;8.652;2023-01-29T10:51:57;6.00;;;5.60;;
13279;SDS011;6708;49.814;8.652;2023-01-29T10:54:40;6.20;;;5.67;;
13279;SDS011;6708;49.814;8.652;2023-01-29T10:57:26;6.77;;;6.17;;
13279;SDS011;6708;49.814;8.652;2023-01-29T11:00:10;6.70;;;6.13;;
13279;SDS011;6708;49.814;8.652;2023-01-29T11:02:44;6.57;;;5.83;;
13279;SDS011;6708;49.814;8.652;2023-01-29T11:05:17;7.03;;;6.30;;
13279;SDS011;6708;49.814;8.652;2023-01-29T11:07:48;5.90;;;5.40;;
13279;SDS011;6708;49.814;8.652;2023-01-29T11:10:16;6.67;;;6.03;;
13279;SDS011;6708;49.814;8.652;2023-01-29T11:12:49;6.73;;;6.23;;
13279;SDS011;6708;49.814;8.652;2023-01-29T11:15:21;7.27;;;6.47;;
13279;SDS011;6708;49.814;8.652;2023-01-29T11:18:01;6.90;;;6.37;;
13279;SDS011;6708;49.814;8.652;2023-01-29T11:20:34;6.83;;;6.33;;
13279;SDS011;6708;49.814;8.652;2023-01-29T11:23:03;7.10;;;6.57;;
13279;SDS011;6708;49.814;8.652;2023-01-29T11:25:31;6.97;;;6.37;;
13279;SDS011;6708;49.814;8.652;2023-01-29T11:28:03;5.93;;;5.47;;
13279;SDS011;6708;49.814;8.652;2023-01-29T11:30:33;7.17;;;6.50;;
13279;SDS011;6708;49.814;8.652;2023-01-29T11:33:06;7.47;;;6.73;;
13279;SDS011;6708;49.814;8.652;2023-01-29T11:35:37;7.13;;;6.43;;
13279;SDS011;6708;49.814;8.652;2023-01-29T11:38:06;7.20;;;6.47;;
13279;SDS011;6708;49.814;8.652;2023-01-29T11:40:39;7.03;;;6.33;;
13279;SDS011;6708;49.814;8.652;2023-01-29T11:43:20;6.03;;;5.47;;
13279;SDS011;6708;49.814;8.652;2023-01-29T11:45:50;7.73;;;6.87;;
13279;SDS011;6708;49.814;8.652;2023-01-29T11:48:20;7.53;;;6.83;;
13279;SDS011;6708;49.814;8.652;2023-01-29T11:50:50;6.23;;;5.67;;
13279;SDS011;6708;49.814;8.652;2023-01-29T11:53:21;6.03;;;5.53;;
13279;SDS011;6708;49.814;8.652;2023-01-29T11:55:52;6.53;;;5.93;;
13279;SDS011;6708;49.814;8.652;2023-01-29T11:58:23;7.03;;;6.43;;
13279;SDS011;6708;49.814;8.652;2023-01-29T12:00:54;5.37;;;4.97;;
13279;SDS011;6708;49.814;8.652;2023-01-29T12:03:28;5.27;;;4.97;;
13279;SDS011;6708;49.814;8.652;2023-01-29T12:06:00;6.10;;;5.60;;
13279;SDS011;6708;49.814;8.652;2023-01-29T12:08:31;5.50;;;5.07;;
13279;SDS011;6708;49.814;8.652;2023-01-29T12:11:06;5.73;;;5.33;;
13279;SDS011;6708;49.814;8.652;2023-01-29T12:13:39;6.20;;;5.60;;
13279;SDS011;6708;49.814;8.652;2023-01-29T12:16:13;6.63;;;6.13;;
13279;SDS011;6708;49.814;8.652;2023-01-29T12:18:45;6.83;;;6.23;;
13279;SDS011;6708;49.814;8.652;2023-01-29T12:21:17;6.20;;;5.70;;
13279;SDS011;6708;49.814;8.652;2023-01-29T12:23:52;9.27;;;6.23;;
13279;SDS011;6708;49.814;8.652;2023-01-29T12:26:24;6.53;;;6.03;;
13279;SDS011;6708;49.814;8.652;2023-01-29T12:29:03;6.70;;;6.07;;
13279;SDS011;6708;49.814;8.652;2023-01-29T12:31:45;6.43;;;5.87;;
13279;SDS011;6708;49.814;8.652;2023-01-29T12:34:19;5.83;;;5.33;;
13279;SDS011;6708;49.814;8.652;2023-01-29T12:36:53;5.83;;;5.33;;
13279;SDS011;6708;49.814;8.652;2023-01-29T12:39:22;6.50;;;6.00;;
13279;SDS011;6708;49.814;8.652;2023-01-29T12:41:52;7.67;;;6.00;;
13279;SDS011;6708;49.814;8.652;2023-01-29T12:44:27;5.90;;;5.40;;
13279;SDS011;6708;49.814;8.652;2023-01-29T12:46:59;6.10;;;5.60;;
13279;SDS011;6708;49.814;8.652;2023-01-29T12:49:28;6.10;;;5.23;;
13279;SDS011;6708;49.814;8.652;2023-01-29T12:52:01;5.97;;;5.37;;
13279;SDS011;6708;49.814;8.652;2023-01-29T12:54:36;6.80;;;5.33;;
13279;SDS011;6708;49.814;8.652;2023-01-29T12:57:07;5.23;;;4.83;;
13279;SDS011;6708;49.814;8.652;2023-01-29T12:59:41;5.37;;;4.87;;
13279;SDS011;6708;49.814;8.652;2023-01-29T13:02:15;5.83;;;5.30;;
13279;SDS011;6708;49.814;8.652;2023-01-29T13:04:50;10.40;;;7.53;;
13279;SDS011;6708;49.814;8.652;2023-01-29T13:07:22;6.10;;;5.50;;
13279;SDS011;6708;49.814;8.652;2023-01-29T13:09:53;6.13;;;5.63;;
13279;SDS011;6708;49.814;8.652;2023-01-29T13:12:25;5.53;;;5.10;;
13279;SDS011;6708;49.814;8.652;2023-01-29T13:14:58;5.57;;;5.17;;
13279;SDS011;6708;49.814;8.652;2023-01-29T13:17:30;5.97;;;5.43;;
13279;SDS011;6708;49.814;8.652;2023-01-29T13:20:02;7.23;;;5.90;;
13279;SDS011;6708;49.814;8.652;2023-01-29T13:22:33;6.80;;;6.20;;
13279;SDS011;6708;49.814;8.652;2023-01-29T13:25:04;7.73;;;6.30;;
13279;SDS011;6708;49.814;8.652;2023-01-29T13:27:35;7.10;;;6.40;;
13279;SDS011;6708;49.814;8.652;2023-01-29T13:30:07;7.23;;;6.63;;
13279;SDS011;6708;49.814;8.652;2023-01-29T13:32:50;7.83;;;6.27;;
13279;SDS011;6708;49.814;8.652;2023-01-29T13:35:19;9.43;;;8.07;;
13279;SDS011;6708;49.814;8.652;2023-01-29T13:37:49;8.00;;;7.30;;
13279;SDS011;6708;49.814;8.652;2023-01-29T13:40:20;7.57;;;6.87;;
13279;SDS011;6708;49.814;8.652;2023-01-29T13:42:51;8.30;;;7.20;;
13279;SDS011;6708;49.814;8.652;2023-01-29T13:45:24;7.97;;;7.20;;
13279;SDS011;6708;49.814;8.652;2023-01-29T13:48:06;7.90;;;7.20;;
13279;SDS011;6708;49.814;8.652;2023-01-29T13:50:37;9.67;;;7.67;;
13279;SDS011;6708;49.814;8.652;2023-01-29T13:53:07;7.87;;;7.13;;
13279;SDS011;6708;49.814;8.652;2023-01-29T13:55:45;8.97;;;7.93;;
13279;SDS011;6708;49.814;8.652;2023-01-29T13:58:14;8.37;;;7.57;;
13279;SDS011;6708;49.814;8.652;2023-01-29T14:03:41;8.90;;;8.03;;
13279;SDS011;6708;49.814;8.652;2023-01-29T14:06:10;12.20;;;7.80;;
13279;SDS011;6708;49.814;8.652;2023-01-29T14:08:40;7.90;;;7.17;;
13279;SDS011;6708;49.814;8.652;2023-01-29T14:13:59;9.33;;;8.33;;
13279;SDS011;6708;49.814;8.652;2023-01-29T14:16:36;8.13;;;7.33;;
13279;SDS011;6708;49.814;8.652;2023-01-29T14:19:04;9.17;;;7.00;;
13279;SDS011;6708;49.814;8.652;2023-01-29T14:21:33;11.03;;;6.80;;
13279;SDS011;6708;49.814;8.652;2023-01-29T14:24:07;8.43;;;7.37;;
13279;SDS011;6708;49.814;8.652;2023-01-29T14:26:41;7.30;;;6.60;;
13279;SDS011;6708;49.814;8.652;2023-01-29T14:29:16;8.20;;;7.50;;
13279;SDS011;6708;49.814;8.652;2023-01-29T14:31:49;7.30;;;6.60;;
13279;SDS011;6708;49.814;8.652;2023-01-29T14:34:21;6.13;;;5.60;;
13279;SDS011;6708;49.814;8.652;2023-01-29T14:36:53;7.30;;;6.70;;
13279;SDS011;6708;49.814;8.652;2023-01-29T14:39:24;11.10;;;8.80;;
13279;SDS011;6708;49.814;8.652;2023-01-29T14:41:56;9.67;;;7.70;;
13279;SDS011;6708;49.814;8.652;2023-01-29T14:47:24;7.90;;;7.20;;
13279;SDS011;6708;49.814;8.652;2023-01-29T14:56:10;7.70;;;6.50;;
13279;SDS011;6708;49.814;8.652;2023-01-29T14:58:42;10.77;;;6.63;;
13279;SDS011;6708;49.814;8.652;2023-01-29T15:01:19;7.13;;;5.77;;
13279;SDS011;6708;49.814;8.652;2023-01-29T15:03:50;6.07;;;5.53;;
13279;SDS011;6708;49.814;8.652;2023-01-29T15:06:25;5.73;;;5.33;;
13279;SDS011;6708;49.814;8.652;2023-01-29T15:08:59;7.47;;;6.77;;
13279;SDS011;6708;49.814;8.652;2023-01-29T15:11:32;6.03;;;5.53;;
13279;SDS011;6708;49.814;8.652;2023-01-29T15:14:15;6.50;;;6.00;;
13279;SDS011;6708;49.814;8.652;2023-01-29T15:16:50;7.60;;;6.90;;
13279;SDS011;6708;49.814;8.652;2023-01-29T15:19:28;8.03;;;7.23;;
13279;SDS011;6708;49.814;8.652;2023-01-29T15:25:01;8.07;;;7.27;;
13279;SDS011;6708;49.814;8.652;2023-01-29T15:27:31;8.30;;;7.10;;
13279;SDS011;6708;49.814;8.652;2023-01-29T15:30:00;8.57;;;7.03;;
13279;SDS011;6708;49.814;8.652;2023-01-29T15:32:30;8.80;;;7.90;;
13279;SDS011;6708;49.814;8.652;2023-01-29T15:34:59;8.00;;;7.30;;
13279;SDS011;6708;49.814;8.652;2023-01-29T15:37:32;8.17;;;7.27;;
13279;SDS011;6708;49.814;8.652;2023-01-29T15:40:03;8.23;;;7.07;;
13279;SDS011;6708;49.814;8.652;2023-01-29T15:42:40;7.93;;;7.13;;
13279;SDS011;6708;49.814;8.652;2023-01-29T15:45:23;14.27;;;7.43;;
13279;SDS011;6708;49.814;8.652;2023-01-29T15:48:00;8.53;;;7.63;;
13279;SDS011;6708;49.814;8.652;2023-01-29T15:50:31;8.23;;;7.53;;
13279;SDS011;6708;49.814;8.652;2023-01-29T15:53:05;9.43;;;8.47;;
13279;SDS011;6708;49.814;8.652;2023-01-29T15:55:35;9.97;;;8.70;;
13279;SDS011;6708;49.814;8.652;2023-01-29T15:58:04;10.63;;;9.60;;